Time;durP1;ratioP1;P1;durP2;ratioP2;P2;SDS_P1;SDS_P2;PMS_P1;PMS_P2;Temp;Humidity;BMP_temperature;BMP_pressure;BME280_temperature;BME280_humidity;BME280_pressure;Samples;Min_cycle;Max_cycle;Signal;HPM_P1;HPM_P2
2023/03/04 00:00:17;;;;;;;23.20;14.50;;;;;;;;;;5004593;28;20184;-79
2023/03/04 00:02:42;;;;;;;25.83;15.17;;;;;;;;;;5006479;28;20290;-79
2023/03/04 00:05:07;;;;;;;25.63;14.77;;;;;;;;;;4999732;28;20178;-79
2023/03/04 00:07:33;;;;;;;24.70;14.87;;;;;;;;;;5007810;28;20191;-79
2023/03/04 00:09:58;;;;;;;21.20;13.20;;;;;;;;;;5006561;28;20175;-79
2023/03/04 00:12:23;;;;;;;23.00;13.83;;;;;;;;;;5005104;28;20206;-80
2023/03/04 00:14:48;;;;;;;27.67;14.47;;;;;;;;;;5004826;28;20187;-79
2023/03/04 00:17:14;;;;;;;25.73;15.30;;;;;;;;;;5007418;28;20230;-80
2023/03/04 00:19:39;;;;;;;23.07;14.83;;;;;;;;;;5020883;28;20175;-80
2023/03/04 00:22:04;;;;;;;23.70;15.13;;;;;;;;;;5005439;28;20206;-80
2023/03/04 00:24:30;;;;;;;27.83;14.90;;;;;;;;;;5006408;28;20191;-80
2023/03/04 00:26:55;;;;;;;22.47;14.43;;;;;;;;;;4999727;28;20183;-80
2023/03/04 00:29:21;;;;;;;23.43;14.20;;;;;;;;;;5003541;28;20214;-82
2023/03/04 00:31:46;;;;;;;30.93;15.07;;;;;;;;;;5006922;28;20183;-80
2023/03/04 00:34:11;;;;;;;24.43;15.03;;;;;;;;;;5020879;28;20206;-81
2023/03/04 00:36:37;;;;;;;28.73;15.70;;;;;;;;;;5003477;28;20289;-81
2023/03/04 00:39:02;;;;;;;27.87;15.17;;;;;;;;;;5005351;28;20250;-81
2023/03/04 00:41:27;;;;;;;23.97;14.37;;;;;;;;;;5009750;28;20229;-81
2023/03/04 00:43:54;;;;;;;24.97;14.43;;;;;;;;;;5010681;28;20175;-81
2023/03/04 00:46:19;;;;;;;26.87;15.13;;;;;;;;;;4999714;28;20294;-81
2023/03/04 00:48:44;;;;;;;22.37;14.00;;;;;;;;;;4998224;28;20282;-81
2023/03/04 00:51:09;;;;;;;23.33;14.63;;;;;;;;;;5002361;28;20178;-81
2023/03/04 00:53:35;;;;;;;27.03;14.63;;;;;;;;;;5001306;28;20199;-81
2023/03/04 00:56:03;;;;;;;25.83;14.90;;;;;;;;;;4998966;28;20183;-81
2023/03/04 00:58:28;;;;;;;29.27;16.13;;;;;;;;;;5006896;28;20189;-81
2023/03/04 01:00:53;;;;;;;24.30;13.70;;;;;;;;;;5006207;28;20182;-81
2023/03/04 01:03:19;;;;;;;27.70;14.87;;;;;;;;;;5004013;28;20189;-81
2023/03/04 01:05:44;;;;;;;23.57;13.80;;;;;;;;;;5005301;28;20190;-81
2023/03/04 01:08:09;;;;;;;25.60;15.03;;;;;;;;;;5002385;28;20277;-81
2023/03/04 01:10:34;;;;;;;23.30;13.33;;;;;;;;;;4999718;28;20186;-81
2023/03/04 01:13:00;;;;;;;24.17;14.27;;;;;;;;;;5003451;28;20205;-80
2023/03/04 01:15:25;;;;;;;27.00;15.37;;;;;;;;;;5003523;28;20188;-80
2023/03/04 01:17:50;;;;;;;27.73;14.07;;;;;;;;;;5005456;28;20230;-80
2023/03/04 01:20:16;;;;;;;24.33;14.43;;;;;;;;;;5007930;28;20179;-80
2023/03/04 01:22:41;;;;;;;22.13;14.03;;;;;;;;;;5010221;28;20175;-80
2023/03/04 01:25:07;;;;;;;22.90;13.53;;;;;;;;;;4999758;28;20242;-80
2023/03/04 01:27:32;;;;;;;24.70;14.77;;;;;;;;;;5004780;28;20187;-80
2023/03/04 01:29:57;;;;;;;22.57;13.83;;;;;;;;;;5001207;28;20199;-80
2023/03/04 01:32:22;;;;;;;19.20;12.47;;;;;;;;;;4999081;28;20185;-79
2023/03/04 01:34:48;;;;;;;25.47;13.53;;;;;;;;;;5010979;28;20211;-79
2023/03/04 01:37:13;;;;;;;25.33;13.97;;;;;;;;;;5004833;28;20179;-79
2023/03/04 01:39:38;;;;;;;24.30;13.90;;;;;;;;;;5009111;28;20175;-79
2023/03/04 01:42:04;;;;;;;21.27;13.87;;;;;;;;;;5019955;28;20182;-79
2023/03/04 01:44:29;;;;;;;20.27;12.57;;;;;;;;;;5015816;28;20175;-78
2023/03/04 01:46:55;;;;;;;15.87;10.57;;;;;;;;;;5030724;28;20254;-78
2023/03/04 01:49:20;;;;;;;25.50;14.27;;;;;;;;;;5005535;28;20186;-78
2023/03/04 01:51:51;;;;;;;20.60;12.50;;;;;;;;;;5001939;28;20183;-78
2023/03/04 01:54:16;;;;;;;22.43;13.33;;;;;;;;;;5008858;28;20203;-78
2023/03/04 01:56:43;;;;;;;22.93;14.27;;;;;;;;;;5004793;28;20168;-78
2023/03/04 01:59:17;;;;;;;24.83;13.80;;;;;;;;;;5026232;28;20186;-78
2023/03/04 02:01:43;;;;;;;23.63;14.97;;;;;;;;;;5025944;28;20183;-78
2023/03/04 02:04:09;;;;;;;21.53;12.10;;;;;;;;;;5003794;28;20250;-78
2023/03/04 02:06:35;;;;;;;21.10;12.63;;;;;;;;;;5002088;28;20188;-78
2023/03/04 02:09:01;;;;;;;16.30;11.73;;;;;;;;;;4999184;28;20218;-78
2023/03/04 02:11:26;;;;;;;23.90;14.60;;;;;;;;;;5003259;28;20199;-78
2023/03/04 02:13:51;;;;;;;22.53;12.33;;;;;;;;;;5008967;28;20214;-78
2023/03/04 02:16:17;;;;;;;25.60;13.83;;;;;;;;;;5002482;28;20254;-78
2023/03/04 02:18:42;;;;;;;22.57;14.17;;;;;;;;;;5024165;28;20186;-78
2023/03/04 02:21:08;;;;;;;20.03;11.63;;;;;;;;;;5009439;28;20213;-78
2023/03/04 02:23:36;;;;;;;22.17;14.27;;;;;;;;;;5011920;28;20187;-78
2023/03/04 02:26:15;;;;;;;25.70;14.23;;;;;;;;;;5013891;28;20266;-78
2023/03/04 02:28:40;;;;;;;20.27;12.27;;;;;;;;;;5006910;28;20214;-78
2023/03/04 02:31:06;;;;;;;20.57;12.43;;;;;;;;;;5023521;28;20206;-78
2023/03/04 02:33:32;;;;;;;20.07;12.80;;;;;;;;;;5002109;28;20222;-78
2023/03/04 02:35:57;;;;;;;24.47;14.93;;;;;;;;;;5014579;28;20175;-78
2023/03/04 02:38:22;;;;;;;21.33;13.30;;;;;;;;;;5007729;28;20198;-78
2023/03/04 02:40:49;;;;;;;21.60;13.63;;;;;;;;;;5004029;28;20183;-78
2023/03/04 02:43:15;;;;;;;21.90;14.20;;;;;;;;;;5007738;28;20199;-78
2023/03/04 02:45:42;;;;;;;21.57;13.27;;;;;;;;;;5023390;28;20179;-79
2023/03/04 02:48:08;;;;;;;24.87;15.03;;;;;;;;;;4999567;28;20314;-79
2023/03/04 02:50:37;;;;;;;22.20;13.30;;;;;;;;;;5003527;28;20289;-79
2023/03/04 02:53:02;;;;;;;23.13;14.03;;;;;;;;;;4997660;28;20222;-78
2023/03/04 02:55:28;;;;;;;20.30;12.90;;;;;;;;;;5002971;28;20179;-79
2023/03/04 02:57:53;;;;;;;22.07;13.83;;;;;;;;;;5005591;28;20175;-78
2023/03/04 03:00:19;;;;;;;21.30;12.13;;;;;;;;;;5004758;28;20190;-78
2023/03/04 03:02:44;;;;;;;20.47;12.73;;;;;;;;;;5007288;28;20175;-78
2023/03/04 03:05:09;;;;;;;21.57;13.73;;;;;;;;;;5005842;28;20179;-78
2023/03/04 03:07:34;;;;;;;21.90;12.20;;;;;;;;;;4994868;28;20250;-79
2023/03/04 03:10:00;;;;;;;23.33;13.80;;;;;;;;;;5025434;28;20194;-79
2023/03/04 03:12:25;;;;;;;19.57;12.50;;;;;;;;;;4998209;28;20234;-79
2023/03/04 03:14:50;;;;;;;24.13;13.83;;;;;;;;;;5002680;28;20206;-79
2023/03/04 03:17:15;;;;;;;26.50;15.07;;;;;;;;;;4998205;28;20219;-79
2023/03/04 03:19:41;;;;;;;19.43;12.53;;;;;;;;;;5004022;28;20179;-79
2023/03/04 03:22:06;;;;;;;19.17;10.70;;;;;;;;;;4999003;28;20184;-80
2023/03/04 03:24:31;;;;;;;23.67;12.67;;;;;;;;;;4998789;28;20232;-80
2023/03/04 03:26:56;;;;;;;14.93;8.50;;;;;;;;;;5003783;28;20194;-80
2023/03/04 03:29:21;;;;;;;20.00;12.17;;;;;;;;;;5005502;28;20174;-80
2023/03/04 03:31:47;;;;;;;14.93;9.50;;;;;;;;;;5006716;28;20179;-81
2023/03/04 03:34:12;;;;;;;20.77;11.13;;;;;;;;;;5006944;28;20252;-81
2023/03/04 03:36:37;;;;;;;22.43;12.47;;;;;;;;;;5006200;28;20187;-81
2023/03/04 03:39:02;;;;;;;19.40;12.97;;;;;;;;;;5002319;28;20287;-81
2023/03/04 03:41:28;;;;;;;19.87;11.90;;;;;;;;;;5000847;28;20265;-81
2023/03/04 03:43:53;;;;;;;20.57;12.10;;;;;;;;;;4997040;28;20175;-82
2023/03/04 03:46:18;;;;;;;21.30;13.20;;;;;;;;;;5002018;28;20204;-81
2023/03/04 03:48:43;;;;;;;19.17;12.00;;;;;;;;;;5025522;28;20206;-82
2023/03/04 03:51:09;;;;;;;20.33;12.23;;;;;;;;;;5001018;28;20179;-82
2023/03/04 03:53:34;;;;;;;20.33;12.30;;;;;;;;;;5008232;28;20209;-82
2023/03/04 03:56:00;;;;;;;18.53;12.30;;;;;;;;;;5005358;28;20185;-82
2023/03/04 03:58:25;;;;;;;25.23;13.57;;;;;;;;;;5000864;28;20194;-82
2023/03/04 04:00:51;;;;;;;20.80;12.10;;;;;;;;;;5001057;28;20203;-82
2023/03/04 04:03:16;;;;;;;22.10;12.03;;;;;;;;;;5010719;28;20179;-82
2023/03/04 04:05:41;;;;;;;20.87;11.80;;;;;;;;;;5006191;28;20203;-82
2023/03/04 04:08:09;;;;;;;17.70;10.83;;;;;;;;;;5002492;28;20187;-82
2023/03/04 04:10:34;;;;;;;21.57;12.17;;;;;;;;;;5005868;28;20211;-82
2023/03/04 04:12:59;;;;;;;24.13;12.07;;;;;;;;;;5005729;28;20226;-82
2023/03/04 04:15:28;;;;;;;19.47;11.10;;;;;;;;;;5005086;28;20185;-82
2023/03/04 04:17:53;;;;;;;19.70;11.83;;;;;;;;;;5040262;28;20222;-82
2023/03/04 04:20:18;;;;;;;19.07;10.43;;;;;;;;;;5040120;28;20186;-82
2023/03/04 04:22:43;;;;;;;17.07;11.00;;;;;;;;;;5017909;28;20178;-82
2023/03/04 04:25:09;;;;;;;19.83;11.60;;;;;;;;;;5024311;28;20179;-81
2023/03/04 04:27:34;;;;;;;18.77;11.63;;;;;;;;;;5022221;28;20212;-81
2023/03/04 04:30:00;;;;;;;21.17;10.73;;;;;;;;;;5024781;28;20269;-81
2023/03/04 04:32:25;;;;;;;20.23;13.50;;;;;;;;;;5019770;28;20175;-81
2023/03/04 04:34:50;;;;;;;17.30;10.23;;;;;;;;;;5044195;28;20246;-81
2023/03/04 04:37:15;;;;;;;16.07;11.43;;;;;;;;;;5022835;28;20260;-81
2023/03/04 04:39:41;;;;;;;21.10;11.53;;;;;;;;;;5045983;28;20184;-81
2023/03/04 04:42:06;;;;;;;20.50;11.00;;;;;;;;;;5021466;28;20198;-81
2023/03/04 04:44:31;;;;;;;21.40;12.13;;;;;;;;;;5025690;28;20179;-81
2023/03/04 04:46:56;;;;;;;17.53;11.10;;;;;;;;;;5027067;28;20182;-81
2023/03/04 04:49:22;;;;;;;19.77;10.80;;;;;;;;;;5036290;28;20241;-81
2023/03/04 04:51:47;;;;;;;18.27;10.67;;;;;;;;;;5022988;28;20186;-81
2023/03/04 04:54:13;;;;;;;16.87;9.87;;;;;;;;;;5042962;28;20205;-81
2023/03/04 04:56:38;;;;;;;13.67;8.23;;;;;;;;;;5035086;28;20185;-80
2023/03/04 04:59:04;;;;;;;15.17;9.87;;;;;;;;;;5022190;28;20192;-80
2023/03/04 05:01:29;;;;;;;17.20;9.03;;;;;;;;;;5030990;28;20179;-80
2023/03/04 05:03:55;;;;;;;17.90;11.17;;;;;;;;;;5018048;28;20202;-80
2023/03/04 05:06:20;;;;;;;19.07;10.27;;;;;;;;;;5025608;28;20189;-80
2023/03/04 05:08:46;;;;;;;17.83;11.90;;;;;;;;;;5022918;28;20297;-79
2023/03/04 05:11:11;;;;;;;14.63;8.47;;;;;;;;;;5026485;28;20229;-80
2023/03/04 05:13:36;;;;;;;20.40;11.53;;;;;;;;;;5023726;28;20191;-80
2023/03/04 05:16:02;;;;;;;18.07;11.23;;;;;;;;;;5023249;28;20249;-79
2023/03/04 05:18:27;;;;;;;15.97;11.37;;;;;;;;;;5002221;28;20175;-79
2023/03/04 05:20:54;;;;;;;17.40;9.63;;;;;;;;;;5006371;28;20218;-79
2023/03/04 05:23:19;;;;;;;19.50;11.70;;;;;;;;;;5002310;28;20190;-79
2023/03/04 05:25:45;;;;;;;23.27;11.57;;;;;;;;;;5015521;28;20175;-79
2023/03/04 05:28:11;;;;;;;17.67;10.67;;;;;;;;;;5005241;28;20190;-80
2023/03/04 05:30:40;;;;;;;19.50;11.10;;;;;;;;;;5003336;28;20247;-80
2023/03/04 05:33:07;;;;;;;17.47;10.73;;;;;;;;;;5001311;28;20207;-80
2023/03/04 05:35:33;;;;;;;18.87;10.37;;;;;;;;;;5020097;28;20191;-80
2023/03/04 05:37:58;;;;;;;16.90;10.20;;;;;;;;;;5005021;28;20208;-80
2023/03/04 05:40:24;;;;;;;16.90;9.00;;;;;;;;;;5003418;28;20198;-80
2023/03/04 05:42:49;;;;;;;18.40;11.60;;;;;;;;;;4998898;28;20186;-80
2023/03/04 05:45:15;;;;;;;17.43;9.77;;;;;;;;;;5005989;28;20189;-81
2023/03/04 05:47:40;;;;;;;17.93;10.57;;;;;;;;;;5002618;28;20190;-81
2023/03/04 05:50:06;;;;;;;20.70;8.53;;;;;;;;;;5009568;28;20273;-81
2023/03/04 05:52:31;;;;;;;18.00;9.03;;;;;;;;;;4997131;28;20186;-82
2023/03/04 05:54:56;;;;;;;15.83;9.40;;;;;;;;;;5016222;28;20206;-81
2023/03/04 05:57:21;;;;;;;14.17;8.60;;;;;;;;;;5002914;28;20177;-82
2023/03/04 05:59:46;;;;;;;16.33;9.07;;;;;;;;;;5001434;28;20185;-82
2023/03/04 06:02:12;;;;;;;24.00;12.70;;;;;;;;;;4998401;28;20179;-78
2023/03/04 06:04:37;;;;;;;17.43;10.37;;;;;;;;;;5014596;28;20184;-78
2023/03/04 06:07:02;;;;;;;18.20;10.90;;;;;;;;;;5001186;28;20178;-79
2023/03/04 06:09:27;;;;;;;18.70;9.10;;;;;;;;;;5001264;28;20175;-79
2023/03/04 06:11:53;;;;;;;12.43;6.63;;;;;;;;;;5004106;28;20202;-79
2023/03/04 06:14:18;;;;;;;14.63;7.60;;;;;;;;;;5002428;28;20213;-79
2023/03/04 06:16:43;;;;;;;14.17;6.30;;;;;;;;;;5005980;28;20303;-79
2023/03/04 06:19:08;;;;;;;5.10;3.07;;;;;;;;;;5019365;28;20230;-79
2023/03/04 06:21:34;;;;;;;15.60;7.37;;;;;;;;;;5000812;28;20194;-79
2023/03/04 06:23:59;;;;;;;12.57;7.80;;;;;;;;;;5003757;28;20179;-79
2023/03/04 06:26:24;;;;;;;15.83;9.50;;;;;;;;;;5002007;28;20179;-79
2023/03/04 06:28:49;;;;;;;16.10;7.67;;;;;;;;;;5006426;28;20273;-79
2023/03/04 06:31:15;;;;;;;13.30;7.70;;;;;;;;;;5005795;28;20200;-79
2023/03/04 06:33:40;;;;;;;14.03;6.97;;;;;;;;;;5008838;28;20210;-79
2023/03/04 06:36:05;;;;;;;10.20;6.27;;;;;;;;;;5001964;28;20179;-79
2023/03/04 06:38:31;;;;;;;12.00;7.13;;;;;;;;;;5010120;28;20177;-79
2023/03/04 06:41:04;;;;;;;11.03;6.50;;;;;;;;;;5006474;28;20182;-80
2023/03/04 06:43:29;;;;;;;24.40;8.33;;;;;;;;;;5000750;28;20450;-79
2023/03/04 06:45:54;;;;;;;13.53;8.43;;;;;;;;;;5006067;28;20190;-80
2023/03/04 06:48:20;;;;;;;24.57;10.83;;;;;;;;;;5002995;28;20186;-79
2023/03/04 06:50:45;;;;;;;13.23;7.33;;;;;;;;;;5001747;28;20183;-79
2023/03/04 06:53:10;;;;;;;12.83;6.67;;;;;;;;;;5003282;28;20249;-80
2023/03/04 06:55:35;;;;;;;20.80;10.43;;;;;;;;;;4996708;28;20171;-80
2023/03/04 06:58:01;;;;;;;11.10;5.23;;;;;;;;;;4999611;28;20173;-79
2023/03/04 07:00:26;;;;;;;14.23;6.00;;;;;;;;;;5001710;28;20176;-80
2023/03/04 07:02:51;;;;;;;25.07;13.57;;;;;;;;;;5005391;28;20198;-80
2023/03/04 07:05:16;;;;;;;23.07;11.70;;;;;;;;;;5007569;28;20183;-80
2023/03/04 07:07:42;;;;;;;21.07;11.10;;;;;;;;;;5001000;28;20189;-80
2023/03/04 07:10:08;;;;;;;17.93;10.97;;;;;;;;;;5002318;28;20186;-80
2023/03/04 07:12:34;;;;;;;9.97;7.17;;;;;;;;;;5005199;28;20270;-80
2023/03/04 07:14:59;;;;;;;21.37;11.77;;;;;;;;;;5010437;28;20349;-80
2023/03/04 07:17:24;;;;;;;21.40;9.90;;;;;;;;;;5001925;28;20231;-80
2023/03/04 07:19:50;;;;;;;23.97;11.83;;;;;;;;;;5002706;28;20197;-79
2023/03/04 07:22:15;;;;;;;22.30;12.70;;;;;;;;;;5006091;28;20178;-80
2023/03/04 07:24:43;;;;;;;22.47;12.30;;;;;;;;;;5001680;28;20194;-79
2023/03/04 07:27:08;;;;;;;17.47;10.53;;;;;;;;;;5008084;28;20245;-79
2023/03/04 07:29:34;;;;;;;12.80;8.30;;;;;;;;;;4996360;28;20182;-79
2023/03/04 07:31:59;;;;;;;18.03;10.00;;;;;;;;;;5001942;28;20215;-79
2023/03/04 07:34:24;;;;;;;14.20;7.57;;;;;;;;;;5002841;28;20210;-79
2023/03/04 07:36:49;;;;;;;22.70;11.60;;;;;;;;;;4997987;28;20182;-79
2023/03/04 07:39:15;;;;;;;15.63;9.10;;;;;;;;;;5010538;28;20179;-79
2023/03/04 07:41:40;;;;;;;24.07;13.73;;;;;;;;;;5018311;28;20198;-79
2023/03/04 07:44:09;;;;;;;14.03;9.13;;;;;;;;;;4999707;28;20364;-78
2023/03/04 07:46:35;;;;;;;26.77;13.93;;;;;;;;;;5000445;28;20278;-79
2023/03/04 07:49:00;;;;;;;28.77;15.37;;;;;;;;;;5008586;28;20213;-79
2023/03/04 07:51:26;;;;;;;23.90;13.60;;;;;;;;;;4998876;28;20194;-79
2023/03/04 07:53:53;;;;;;;26.83;13.57;;;;;;;;;;4999413;28;20202;-78
2023/03/04 07:56:20;;;;;;;17.20;9.60;;;;;;;;;;5000891;28;20181;-79
2023/03/04 07:58:45;;;;;;;26.47;16.40;;;;;;;;;;5002478;28;20189;-79
2023/03/04 08:01:11;;;;;;;15.73;8.30;;;;;;;;;;5003488;28;20186;-79
2023/03/04 08:03:37;;;;;;;12.77;8.90;;;;;;;;;;4995116;28;20196;-79
2023/03/04 08:06:06;;;;;;;20.63;10.90;;;;;;;;;;5007582;28;20186;-78
2023/03/04 08:08:31;;;;;;;13.43;8.27;;;;;;;;;;5003901;28;20183;-78
2023/03/04 08:10:59;;;;;;;24.20;11.63;;;;;;;;;;5001579;28;20220;-79
2023/03/04 08:13:24;;;;;;;26.83;14.83;;;;;;;;;;5008014;28;20207;-78
2023/03/04 08:15:49;;;;;;;22.30;12.57;;;;;;;;;;5009700;28;20269;-79
2023/03/04 08:18:15;;;;;;;24.07;11.80;;;;;;;;;;5030893;28;20198;-78
2023/03/04 08:20:42;;;;;;;25.10;13.87;;;;;;;;;;5024795;28;20178;-78
2023/03/04 08:23:07;;;;;;;27.77;15.77;;;;;;;;;;5022130;28;20191;-78
2023/03/04 08:25:32;;;;;;;23.53;13.10;;;;;;;;;;5023332;28;20237;-78
2023/03/04 08:27:57;;;;;;;27.60;15.93;;;;;;;;;;5021439;28;20186;-78
2023/03/04 08:30:23;;;;;;;31.20;16.93;;;;;;;;;;5017099;28;20182;-78
2023/03/04 08:32:48;;;;;;;27.03;14.43;;;;;;;;;;5023482;28;20189;-78
2023/03/04 08:35:13;;;;;;;22.10;12.03;;;;;;;;;;5015618;28;20169;-78
2023/03/04 08:37:38;;;;;;;30.30;17.30;;;;;;;;;;5021029;28;20192;-78
2023/03/04 08:40:04;;;;;;;10.70;7.27;;;;;;;;;;5041886;28;20181;-78
2023/03/04 08:42:29;;;;;;;24.80;14.40;;;;;;;;;;5046864;28;20197;-78
2023/03/04 08:44:54;;;;;;;19.83;10.77;;;;;;;;;;5031049;28;20222;-78
2023/03/04 08:47:20;;;;;;;27.53;13.50;;;;;;;;;;5019723;28;20217;-78
2023/03/04 08:49:45;;;;;;;29.73;17.30;;;;;;;;;;5017741;28;20228;-78
2023/03/04 08:52:10;;;;;;;27.33;16.20;;;;;;;;;;5030199;28;20185;-78
2023/03/04 08:54:35;;;;;;;28.63;16.60;;;;;;;;;;5025411;28;20212;-79
2023/03/04 08:57:01;;;;;;;35.83;18.97;;;;;;;;;;5049686;28;20223;-78
2023/03/04 08:59:27;;;;;;;34.03;18.07;;;;;;;;;;5028053;28;20181;-78
2023/03/04 09:01:52;;;;;;;31.00;17.20;;;;;;;;;;5043472;28;20185;-78
2023/03/04 09:04:17;;;;;;;27.43;15.00;;;;;;;;;;5039260;28;20237;-78
2023/03/04 09:06:42;;;;;;;36.17;20.13;;;;;;;;;;5047722;28;20186;-79
2023/03/04 09:09:08;;;;;;;36.77;19.73;;;;;;;;;;5024024;28;20193;-79
2023/03/04 09:11:33;;;;;;;39.37;20.63;;;;;;;;;;5025480;28;20206;-80
2023/03/04 09:13:58;;;;;;;33.50;17.90;;;;;;;;;;5017326;28;20231;-79
2023/03/04 09:16:24;;;;;;;28.77;13.83;;;;;;;;;;5014848;28;20227;-79
2023/03/04 09:18:49;;;;;;;18.03;10.57;;;;;;;;;;5004450;28;20179;-79
2023/03/04 09:21:14;;;;;;;30.27;17.03;;;;;;;;;;5011032;28;20327;-80
2023/03/04 09:23:40;;;;;;;35.90;19.33;;;;;;;;;;5024977;28;20270;-74
2023/03/04 09:26:13;;;;;;;24.67;13.37;;;;;;;;;;5001773;28;20178;-77
2023/03/04 09:28:38;;;;;;;30.70;17.10;;;;;;;;;;5006551;28;20183;-77
2023/03/04 09:31:09;;;;;;;42.90;23.60;;;;;;;;;;5009680;28;20187;-77
2023/03/04 09:33:34;;;;;;;37.33;20.07;;;;;;;;;;5017756;28;20202;-77
2023/03/04 09:36:00;;;;;;;34.10;18.13;;;;;;;;;;5002842;28;20260;-77
2023/03/04 09:38:26;;;;;;;35.30;21.07;;;;;;;;;;4998767;28;20191;-77
2023/03/04 09:40:51;;;;;;;33.97;17.03;;;;;;;;;;5005067;28;20186;-77
2023/03/04 09:43:23;;;;;;;29.73;15.37;;;;;;;;;;5015326;28;20190;-77
2023/03/04 09:45:50;;;;;;;33.13;17.27;;;;;;;;;;4998528;28;20190;-82
2023/03/04 09:48:18;;;;;;;28.77;16.07;;;;;;;;;;5011105;28;20182;-83
2023/03/04 09:50:50;;;;;;;18.03;12.10;;;;;;;;;;5003345;28;20186;-83
2023/03/04 09:53:24;;;;;;;18.87;11.07;;;;;;;;;;5003886;28;20266;-83
2023/03/04 09:55:50;;;;;;;32.83;18.00;;;;;;;;;;5002572;28;20180;-83
2023/03/04 09:58:24;;;;;;;33.53;19.83;;;;;;;;;;5015438;28;20175;-83
2023/03/04 10:01:07;;;;;;;25.27;16.00;;;;;;;;;;4998232;28;20175;-82
2023/03/04 10:03:42;;;;;;;33.53;18.37;;;;;;;;;;5013062;28;20194;-82
2023/03/04 10:06:10;;;;;;;70.33;22.33;;;;;;;;;;5003956;28;20188;-81
2023/03/04 10:08:35;;;;;;;55.17;20.83;;;;;;;;;;5003581;28;20183;-81
2023/03/04 10:11:02;;;;;;;31.07;17.73;;;;;;;;;;5026284;28;20196;-81
2023/03/04 10:13:32;;;;;;;33.03;18.30;;;;;;;;;;5023392;28;20222;-80
2023/03/04 10:15:58;;;;;;;41.53;22.90;;;;;;;;;;5011350;28;20218;-80
2023/03/04 10:18:30;;;;;;;34.50;20.27;;;;;;;;;;5025675;28;20179;-80
2023/03/04 10:21:16;;;;;;;48.90;23.47;;;;;;;;;;5020864;28;20278;-80
2023/03/04 10:23:41;;;;;;;44.10;23.47;;;;;;;;;;5015454;28;20199;-80
2023/03/04 10:26:12;;;;;;;31.37;19.33;;;;;;;;;;5025386;28;20208;-80
2023/03/04 10:28:37;;;;;;;28.93;15.20;;;;;;;;;;5021787;28;20183;-80
2023/03/04 10:31:03;;;;;;;35.97;19.23;;;;;;;;;;5031689;28;20205;-80
2023/03/04 10:33:29;;;;;;;32.00;16.67;;;;;;;;;;5046030;28;20206;-80
2023/03/04 10:36:05;;;;;;;33.23;17.97;;;;;;;;;;5032497;28;20185;-80
2023/03/04 10:38:35;;;;;;;25.87;15.27;;;;;;;;;;5041275;28;20174;-81
2023/03/04 10:41:10;;;;;;;31.93;16.57;;;;;;;;;;5029165;28;20178;-80
2023/03/04 10:43:35;;;;;;;35.10;20.67;;;;;;;;;;5029506;28;20300;-81
2023/03/04 10:46:02;;;;;;;39.67;19.00;;;;;;;;;;5025581;28;20194;-80
2023/03/04 10:48:28;;;;;;;41.53;23.37;;;;;;;;;;5023660;28;20175;-81
2023/03/04 10:51:08;;;;;;;38.17;21.47;;;;;;;;;;5039424;28;20269;-81
2023/03/04 10:53:38;;;;;;;37.83;21.03;;;;;;;;;;5017833;28;20206;-81
2023/03/04 10:56:23;;;;;;;39.43;22.10;;;;;;;;;;5027506;28;20181;-81
2023/03/04 10:58:48;;;;;;;49.90;23.93;;;;;;;;;;5044291;28;20181;-81
2023/03/04 11:01:15;;;;;;;36.60;19.40;;;;;;;;;;5043910;28;20266;-81
2023/03/04 11:03:45;;;;;;;29.23;12.80;;;;;;;;;;5023630;28;20234;-82
2023/03/04 11:06:21;;;;;;;39.60;21.33;;;;;;;;;;5022549;28;20189;-82
2023/03/04 11:08:54;;;;;;;34.73;18.97;;;;;;;;;;5031301;28;20185;-82
2023/03/04 11:11:33;;;;;;;41.07;21.47;;;;;;;;;;5027041;28;20295;-82
2023/03/04 11:13:59;;;;;;;41.93;24.33;;;;;;;;;;5029210;28;20202;-82
2023/03/04 11:16:27;;;;;;;36.93;21.63;;;;;;;;;;5014248;28;20227;-83
2023/03/04 11:18:54;;;;;;;32.77;16.83;;;;;;;;;;5007093;28;20218;-83
2023/03/04 11:21:21;;;;;;;37.37;21.60;;;;;;;;;;5005253;28;20179;-83
2023/03/04 11:23:57;;;;;;;38.90;16.57;;;;;;;;;;5003676;28;20182;-83
2023/03/04 11:26:33;;;;;;;18.63;9.77;;;;;;;;;;5005048;28;20250;-83
2023/03/04 11:29:15;;;;;;;43.13;22.80;;;;;;;;;;5007129;28;20187;-83
2023/03/04 11:31:52;;;;;;;37.37;22.00;;;;;;;;;;5001518;28;20266;-83
2023/03/04 11:34:20;;;;;;;34.73;19.87;;;;;;;;;;5013927;28;20260;-83
2023/03/04 11:36:56;;;;;;;49.00;24.23;;;;;;;;;;5000075;28;20190;-83
2023/03/04 11:39:30;;;;;;;35.67;24.13;;;;;;;;;;5003044;28;20187;-83
2023/03/04 11:42:06;;;;;;;33.00;18.10;;;;;;;;;;5004585;28;20182;-83
2023/03/04 11:44:31;;;;;;;27.23;13.93;;;;;;;;;;5005204;28;20182;-84
2023/03/04 11:47:08;;;;;;;17.57;8.67;;;;;;;;;;5001275;28;20193;-83
2023/03/04 11:49:33;;;;;;;40.67;19.07;;;;;;;;;;5022910;28;20186;-84
2023/03/04 11:52:04;;;;;;;29.77;11.63;;;;;;;;;;5008276;28;20185;-83
2023/03/04 11:54:34;;;;;;;35.10;19.17;;;;;;;;;;5003235;28;20234;-84
2023/03/04 11:57:04;;;;;;;21.43;10.77;;;;;;;;;;5004560;28;20182;-83
2023/03/04 11:59:44;;;;;;;26.23;13.70;;;;;;;;;;5009449;28;20241;-84
2023/03/04 12:02:09;;;;;;;35.87;19.73;;;;;;;;;;5008705;28;20175;-83
2023/03/04 12:04:47;;;;;;;36.83;21.07;;;;;;;;;;5016349;28;20201;-83
2023/03/04 12:07:15;;;;;;;34.93;19.57;;;;;;;;;;4998546;28;20211;-83
2023/03/04 12:10:19;;;;;;;34.23;12.30;;;;;;;;;;5002568;28;20191;-83
2023/03/04 12:12:47;;;;;;;26.53;15.03;;;;;;;;;;4934434;29;20241;-84
2023/03/04 12:15:31;;;;;;;19.23;11.40;;;;;;;;;;4917722;29;20220;-83
2023/03/04 12:18:19;;;;;;;40.57;20.47;;;;;;;;;;4972045;28;20250;-84
2023/03/04 12:20:50;;;;;;;22.83;11.50;;;;;;;;;;5012715;28;20199;-85
2023/03/04 12:23:21;;;;;;;31.83;17.17;;;;;;;;;;5003451;28;20182;-84
2023/03/04 12:25:47;;;;;;;29.07;12.90;;;;;;;;;;4997032;28;20179;-84
2023/03/04 12:28:30;;;;;;;32.80;19.03;;;;;;;;;;4998390;28;20277;-84
2023/03/04 12:31:13;;;;;;;38.07;21.40;;;;;;;;;;5008899;28;20228;-84
2023/03/04 12:33:41;;;;;;;25.17;11.47;;;;;;;;;;5010469;28;20293;-84
2023/03/04 12:36:22;;;;;;;37.77;22.37;;;;;;;;;;5013385;28;20183;-84
2023/03/04 12:39:06;;;;;;;35.23;18.90;;;;;;;;;;5002857;28;20182;-84
2023/03/04 12:41:31;;;;;;;36.87;20.97;;;;;;;;;;5001126;28;20217;-84
2023/03/04 12:44:09;;;;;;;26.73;13.47;;;;;;;;;;4998233;28;20184;-84
2023/03/04 12:46:45;;;;;;;33.00;18.30;;;;;;;;;;5002009;28;20181;-85
2023/03/04 12:49:20;;;;;;;33.87;17.93;;;;;;;;;;4999167;28;20253;-84
2023/03/04 12:51:45;;;;;;;9.80;6.77;;;;;;;;;;5005308;28;20184;-84
2023/03/04 12:54:19;;;;;;;24.53;15.20;;;;;;;;;;5000076;28;20195;-85
2023/03/04 12:56:49;;;;;;;29.57;16.20;;;;;;;;;;5017123;28;20218;-85
2023/03/04 12:59:15;;;;;;;32.40;17.87;;;;;;;;;;4998934;28;20205;-85
2023/03/04 13:01:44;;;;;;;16.33;11.43;;;;;;;;;;4996497;28;20210;-85
2023/03/04 13:04:28;;;;;;;41.97;24.83;;;;;;;;;;4999199;28;20197;-85
2023/03/04 13:06:56;;;;;;;35.70;19.57;;;;;;;;;;5004182;28;20262;-85
2023/03/04 13:09:29;;;;;;;95.07;25.73;;;;;;;;;;4998436;28;20226;-85
2023/03/04 13:12:14;;;;;;;34.33;18.27;;;;;;;;;;4999390;28;20205;-85
2023/03/04 13:14:40;;;;;;;19.50;9.77;;;;;;;;;;5000926;28;20288;-85
2023/03/04 13:17:28;;;;;;;35.80;20.77;;;;;;;;;;5037121;28;20257;-85
2023/03/04 13:19:57;;;;;;;23.80;10.70;;;;;;;;;;5026928;28;20189;-85
2023/03/04 13:22:25;;;;;;;33.23;14.70;;;;;;;;;;5044467;28;20209;-85
2023/03/04 13:24:51;;;;;;;29.43;16.03;;;;;;;;;;5020719;28;20186;-85
2023/03/04 13:27:35;;;;;;;35.60;18.40;;;;;;;;;;5028812;28;20177;-86
2023/03/04 13:30:00;;;;;;;32.27;17.97;;;;;;;;;;5033134;28;20189;-85
2023/03/04 13:32:36;;;;;;;27.67;11.07;;;;;;;;;;5026970;28;20189;-86
2023/03/04 13:35:01;;;;;;;23.30;11.67;;;;;;;;;;5027384;28;20205;-85
2023/03/04 13:37:31;;;;;;;22.43;12.30;;;;;;;;;;5023542;28;20233;-85
2023/03/04 13:40:17;;;;;;;27.17;14.00;;;;;;;;;;5027569;28;20265;-85
2023/03/04 13:42:43;;;;;;;30.83;17.20;;;;;;;;;;5026502;28;20195;-86
2023/03/04 13:45:27;;;;;;;23.03;12.43;;;;;;;;;;5026552;28;20184;-85
2023/03/04 13:47:52;;;;;;;23.23;12.07;;;;;;;;;;5024285;28;20197;-85
2023/03/04 13:50:23;;;;;;;28.63;14.40;;;;;;;;;;5028266;28;20178;-86
2023/03/04 13:52:48;;;;;;;24.10;12.43;;;;;;;;;;5029700;28;20178;-85
2023/03/04 13:55:32;;;;;;;36.50;18.13;;;;;;;;;;5032187;28;20195;-86
2023/03/04 13:57:57;;;;;;;22.60;11.97;;;;;;;;;;5047481;28;20178;-86
2023/03/04 14:00:23;;;;;;;30.00;13.53;;;;;;;;;;5045724;28;20185;-86
2023/03/04 14:02:48;;;;;;;30.23;16.47;;;;;;;;;;5025481;28;20269;-86
2023/03/04 14:05:13;;;;;;;26.73;14.47;;;;;;;;;;5027822;28;20250;-86
2023/03/04 14:07:39;;;;;;;34.90;15.67;;;;;;;;;;5034374;28;20209;-86
2023/03/04 14:10:04;;;;;;;18.53;10.13;;;;;;;;;;5024910;28;20191;-86
2023/03/04 14:12:31;;;;;;;30.07;16.20;;;;;;;;;;5029060;28;20225;-86
2023/03/04 14:14:57;;;;;;;34.33;19.37;;;;;;;;;;5016718;28;20210;-86
2023/03/04 14:17:25;;;;;;;28.17;12.80;;;;;;;;;;5044394;28;20321;-86
2023/03/04 14:19:51;;;;;;;26.17;13.90;;;;;;;;;;5029597;28;20201;-86